Time;durP1;ratioP1;P1;durP2;ratioP2;P2;SDS_P1;SDS_P2;PMS_P1;PMS_P2;Temp;Humidity;BMP_temperature;BMP_pressure;BME280_temperature;BME280_humidity;BME280_pressure;Samples;Min_cycle;Max_cycle;Signal;HPM_P1;HPM_P2
2022/01/19 00:01:26;;;;;;;3.20;1.00;;;3.00;99.90;;;;;;5124025;28;20200;-55
2022/01/19 00:04:12;;;;;;;0.97;0.93;;;2.90;99.90;;;;;;5125125;27;20219;-57
2022/01/19 00:06:56;;;;;;;2.87;1.07;;;2.90;99.90;;;;;;5121484;27;20217;-58
2022/01/19 00:09:40;;;;;;;2.07;1.60;;;2.90;99.90;;;;;;5127106;27;20196;-61
2022/01/19 00:12:24;;;;;;;0.87;0.87;;;3.00;99.90;;;;;;5124636;27;20199;-62
2022/01/19 00:15:10;;;;;;;1.00;1.00;;;3.00;99.90;;;;;;5122743;27;20223;-59
2022/01/19 00:17:58;;;;;;;0.80;0.80;;;3.00;99.90;;;;;;5122830;27;20210;-59
2022/01/19 00:20:42;;;;;;;0.93;0.83;;;3.00;99.90;;;;;;5121837;27;20187;-60
2022/01/19 00:23:26;;;;;;;1.10;1.10;;;3.00;99.90;;;;;;5126214;27;20195;-53
2022/01/19 00:26:10;;;;;;;1.80;1.13;;;3.00;99.90;;;;;;5128016;27;20233;-61
2022/01/19 00:28:57;;;;;;;0.83;0.83;;;3.10;99.90;;;;;;5123826;27;20308;-56
2022/01/19 00:31:42;;;;;;;1.33;1.33;;;3.10;99.90;;;;;;5128642;27;20191;-58
2022/01/19 00:34:28;;;;;;;0.97;0.97;;;3.10;99.90;;;;;;5126404;27;20228;-58
2022/01/19 00:37:12;;;;;;;2.03;0.73;;;3.10;99.90;;;;;;5124203;27;20217;-60
2022/01/19 00:39:56;;;;;;;0.93;0.93;;;3.10;99.90;;;;;;5128249;27;20227;-59
2022/01/19 00:42:44;;;;;;;1.30;1.10;;;3.10;99.90;;;;;;5124432;27;20191;-60
2022/01/19 00:45:29;;;;;;;0.97;0.87;;;3.10;99.90;;;;;;5126112;27;20195;-56
2022/01/19 00:48:14;;;;;;;0.67;0.47;;;3.10;99.90;;;;;;5127789;27;20202;-60
2022/01/19 00:50:58;;;;;;;0.97;0.97;;;3.10;99.90;;;;;;5123950;27;20191;-59
2022/01/19 00:53:43;;;;;;;3.30;0.93;;;3.10;99.90;;;;;;5126773;27;20196;-54
2022/01/19 00:56:27;;;;;;;0.90;0.80;;;3.00;99.90;;;;;;5127491;27;20234;-57
2022/01/19 00:59:12;;;;;;;0.70;0.70;;;2.90;99.90;;;;;;5122587;27;20320;-59
2022/01/19 01:01:57;;;;;;;0.77;0.77;;;2.90;99.90;;;;;;5127690;27;20269;-60
2022/01/19 01:04:41;;;;;;;1.60;0.90;;;2.90;99.90;;;;;;5125579;27;20214;-61
2022/01/19 01:07:27;;;;;;;0.73;0.73;;;2.90;99.90;;;;;;5123333;27;20194;-52
2022/01/19 01:10:15;;;;;;;7.33;1.40;;;2.90;99.90;;;;;;5127424;27;20229;-53
2022/01/19 01:13:17;;;;;;;1.40;1.40;;;2.80;99.90;;;;;;5123937;27;20195;-58
2022/01/19 01:16:04;;;;;;;0.90;0.90;;;2.70;99.90;;;;;;5123334;27;20207;-58
2022/01/19 01:18:48;;;;;;;1.80;0.80;;;2.60;99.90;;;;;;5126965;27;20219;-58
2022/01/19 01:21:34;;;;;;;1.50;0.80;;;2.50;99.90;;;;;;5122955;27;20199;-61
2022/01/19 01:24:18;;;;;;;1.30;1.20;;;2.50;99.90;;;;;;5124349;27;20230;-56
2022/01/19 01:27:03;;;;;;;0.90;0.90;;;2.50;99.90;;;;;;5126863;27;20195;-57
2022/01/19 01:29:47;;;;;;;1.27;1.07;;;2.40;99.90;;;;;;5121957;27;20249;-52
2022/01/19 01:32:32;;;;;;;0.80;0.80;;;2.30;99.90;;;;;;5126664;27;20196;-60
2022/01/19 01:35:18;;;;;;;2.53;1.80;;;2.30;99.90;;;;;;5125988;27;20231;-61
2022/01/19 01:38:04;;;;;;;3.20;0.60;;;2.20;99.90;;;;;;5122226;27;20320;-62
2022/01/19 01:40:48;;;;;;;1.27;0.90;;;2.20;99.90;;;;;;5126632;27;20251;-49
2022/01/19 01:43:32;;;;;;;1.30;0.93;;;2.20;99.90;;;;;;5124767;27;20257;-63
2022/01/19 01:46:34;;;;;;;1.33;0.57;;;2.20;99.90;;;;;;5122974;27;20191;-52
2022/01/19 01:49:38;;;;;;;1.87;1.33;;;2.10;99.90;;;;;;5126286;27;20198;-51
2022/01/19 01:55:29;;;;;;;1.80;0.97;;;2.00;99.90;;;;;;5123748;27;20232;-58
2022/01/19 01:58:13;;;;;;;1.17;1.17;;;2.00;99.90;;;;;;5126562;27;20313;-50
2022/01/19 02:00:58;;;;;;;1.43;0.90;;;1.90;99.90;;;;;;5124857;27;20226;-61
2022/01/19 02:03:44;;;;;;;2.13;0.93;;;1.90;99.90;;;;;;5122579;27;20206;-54
2022/01/19 02:06:39;;;;;;;3.17;1.23;;;1.80;99.90;;;;;;5125945;27;20322;-55
2022/01/19 02:09:26;;;;;;;2.10;0.80;;;1.70;99.90;;;;;;5122962;27;20237;-59
2022/01/19 02:21:59;;;;;;;2.73;1.50;;;1.30;99.90;;;;;;5122306;27;20207;-60
2022/01/19 02:24:45;;;;;;;2.63;0.87;;;1.30;99.90;;;;;;5124572;27;20288;-56
2022/01/19 02:40:12;;;;;;;1.13;1.00;;;1.00;99.90;;;;;;5124664;27;20223;-62
2022/01/19 02:52:05;;;;;;;1.60;1.00;;;1.20;99.90;;;;;;5098450;28;20207;-56
2022/01/19 02:54:51;;;;;;;1.83;0.70;;;1.40;99.90;;;;;;5088332;28;20211;-49
2022/01/19 02:57:36;;;;;;;1.13;1.13;;;1.40;99.90;;;;;;5088859;28;20328;-57
2022/01/19 03:09:30;;;;;;;1.27;1.20;;;1.40;99.90;;;;;;5098946;28;20270;-61
2022/01/19 03:12:15;;;;;;;1.10;1.10;;;1.40;99.90;;;;;;5087894;28;20279;-57
2022/01/19 03:14:59;;;;;;;0.97;0.83;;;1.40;99.90;;;;;;5088752;28;20192;-58
2022/01/19 03:17:44;;;;;;;1.10;1.07;;;1.30;99.90;;;;;;5084117;28;20196;-55
2022/01/19 03:20:29;;;;;;;0.97;0.97;;;1.20;99.90;;;;;;5088576;28;20204;-52
2022/01/19 03:23:22;;;;;;;1.43;1.33;;;1.10;99.90;;;;;;5087015;28;20200;-61
2022/01/19 03:26:07;;;;;;;2.80;0.93;;;1.10;99.90;;;;;;5084819;28;20242;-57
2022/01/19 03:28:51;;;;;;;1.30;1.20;;;1.00;99.90;;;;;;5125358;28;20195;-57
2022/01/19 03:31:36;;;;;;;2.63;1.27;;;1.00;99.90;;;;;;5122118;28;20191;-57
2022/01/19 03:34:21;;;;;;;1.10;1.10;;;1.00;99.90;;;;;;5122118;28;20273;-55
2022/01/19 03:37:06;;;;;;;1.97;1.27;;;0.90;99.90;;;;;;5125211;28;20226;-59
2022/01/19 03:39:51;;;;;;;0.93;0.67;;;0.80;99.90;;;;;;5124011;27;20211;-61
2022/01/19 03:42:36;;;;;;;0.63;0.63;;;0.70;99.90;;;;;;5128155;27;20306;-57
2022/01/19 03:45:20;;;;;;;5.53;3.27;;;0.70;99.90;;;;;;5128827;27;20203;-54
2022/01/19 03:50:59;;;;;;;2.73;1.53;;;0.90;99.90;;;;;;5129690;27;20187;-51
2022/01/19 03:53:44;;;;;;;1.03;0.73;;;1.00;99.90;;;;;;5127516;27;20183;-59
2022/01/19 03:56:28;;;;;;;1.90;1.20;;;1.20;99.90;;;;;;5124096;27;20195;-49
2022/01/19 03:59:12;;;;;;;16.90;8.57;;;1.30;99.90;;;;;;5128392;27;20323;-60
2022/01/19 04:01:58;;;;;;;5.63;2.57;;;1.10;99.90;;;;;;5125487;27;20234;-61
2022/01/19 04:04:49;;;;;;;3.60;1.77;;;0.90;99.90;;;;;;5125173;27;20203;-53
2022/01/19 04:07:33;;;;;;;5.73;1.70;;;0.80;99.90;;;;;;5128930;27;20275;-54
2022/01/19 04:10:18;;;;;;;3.03;1.53;;;0.60;99.90;;;;;;5124181;27;20207;-55
2022/01/19 04:13:24;;;;;;;0.90;0.90;;;0.60;99.90;;;;;;5126358;27;20222;-54
2022/01/19 04:16:08;;;;;;;3.40;1.13;;;0.50;99.90;;;;;;5128787;27;20227;-49
2022/01/19 04:19:01;;;;;;;2.30;1.27;;;0.50;99.90;;;;;;5123666;27;20289;-51
2022/01/19 04:21:45;;;;;;;1.20;1.20;;;0.40;99.90;;;;;;5126525;27;20234;-54
2022/01/19 04:24:30;;;;;;;4.70;1.07;;;0.40;99.90;;;;;;5128715;27;20195;-59
2022/01/19 04:30:10;;;;;;;1.73;1.43;;;0.40;99.90;;;;;;5129160;27;20229;-49
2022/01/19 04:36:20;;;;;;;0.93;0.80;;;0.30;99.90;;;;;;5124029;27;20223;-52
2022/01/19 04:44:02;;;;;;;2.20;1.17;;;0.20;99.90;;;;;;5128116;27;20235;-55
2022/01/19 04:45:48;;;;;;;2.83;1.03;;;0.20;99.90;;;;;;5125566;27;20226;-59
2022/01/19 04:48:22;;;;;;;1.20;1.10;;;0.10;99.90;;;;;;5125407;27;20252;-53
2022/01/19 05:06:06;;;;;;;1.17;1.17;;;-0.10;99.90;;;;;;5123502;27;20207;-48
2022/01/19 05:08:59;;;;;;;5.50;4.90;;;-0.10;99.90;;;;;;5127031;27;20188;-61
2022/01/19 05:14:46;;;;;;;2.83;0.90;;;-0.30;99.90;;;;;;5123580;27;20195;-56
2022/01/19 05:17:30;;;;;;;0.77;0.73;;;0.00;99.90;;;;;;5126440;27;20249;-56
2022/01/19 05:20:14;;;;;;;0.90;0.90;;;0.20;99.90;;;;;;5124455;27;20203;-59
2022/01/19 05:22:58;;;;;;;4.83;1.60;;;0.30;99.90;;;;;;5120180;27;20682;-57
2022/01/19 05:25:44;;;;;;;1.60;1.30;;;0.30;99.90;;;;;;5124429;27;20188;-52
2022/01/19 05:28:28;;;;;;;4.20;1.77;;;0.30;99.90;;;;;;5121777;27;20179;-61
2022/01/19 05:31:13;;;;;;;4.30;1.20;;;0.30;99.90;;;;;;5151452;27;20257;-51
2022/01/19 05:33:57;;;;;;;1.50;1.40;;;0.30;99.90;;;;;;5154681;27;20219;-58
2022/01/19 05:36:42;;;;;;;1.83;1.13;;;0.50;99.90;;;;;;5150893;27;20333;-61
2022/01/19 05:39:26;;;;;;;1.47;1.27;;;0.30;99.90;;;;;;5124237;27;20227;-58
2022/01/19 05:42:14;;;;;;;2.00;0.93;;;0.20;99.90;;;;;;5124508;27;20198;-61
2022/01/19 05:44:58;;;;;;;1.20;0.70;;;0.10;99.90;;;;;;5117212;27;20191;-59
2022/01/19 05:47:45;;;;;;;2.63;1.40;;;-0.20;99.90;;;;;;5124481;27;20203;-51
2022/01/19 05:50:29;;;;;;;3.27;0.87;;;-0.40;99.90;;;;;;5124582;27;20245;-62
2022/01/19 05:53:15;;;;;;;1.50;1.33;;;-0.50;99.90;;;;;;5121263;27;20252;-49
2022/01/19 05:55:59;;;;;;;1.40;1.10;;;-0.50;99.90;;;;;;5123011;27;20191;-56
2022/01/19 05:58:43;;;;;;;1.83;1.83;;;-0.50;99.90;;;;;;5120375;27;20216;-62
2022/01/19 06:01:28;;;;;;;0.90;0.63;;;-0.60;99.90;;;;;;5121567;27;20192;-50
2022/01/19 06:04:13;;;;;;;2.97;1.33;;;-0.50;99.90;;;;;;5125264;27;20195;-59
2022/01/19 06:06:57;;;;;;;1.17;1.17;;;-0.60;99.90;;;;;;5121446;27;20195;-59
2022/01/19 06:12:30;;;;;;;1.60;0.77;;;-0.60;99.90;;;;;;5125422;27;20206;-49
2022/01/19 06:15:14;;;;;;;2.97;2.10;;;-0.70;99.90;;;;;;5120869;27;20196;-59
2022/01/19 06:17:59;;;;;;;3.93;1.23;;;-0.60;99.90;;;;;;5123427;27;20188;-61
2022/01/19 06:20:44;;;;;;;0.73;0.73;;;-0.60;99.90;;;;;;5121602;27;20191;-61
2022/01/19 06:23:29;;;;;;;1.97;1.20;;;-0.50;99.90;;;;;;5120402;27;20196;-58
2022/01/19 06:26:13;;;;;;;1.03;1.03;;;-0.40;99.90;;;;;;5124228;27;20235;-56
2022/01/19 06:28:57;;;;;;;0.87;0.77;;;-0.60;99.90;;;;;;5121029;27;20195;-59
2022/01/19 06:31:42;;;;;;;1.33;1.23;;;-0.60;99.90;;;;;;5121636;27;20191;-60
2022/01/19 06:34:27;;;;;;;1.40;0.93;;;-0.60;99.90;;;;;;5124380;27;20220;-54
2022/01/19 06:37:11;;;;;;;3.40;1.23;;;-0.70;99.90;;;;;;5119411;27;20309;-57
2022/01/19 06:40:13;;;;;;;4.17;1.83;;;-0.70;99.90;;;;;;5106412;27;20654;-48
2022/01/19 06:42:57;;;;;;;2.57;1.23;;;-0.90;99.90;;;;;;5119815;28;20200;-46
2022/01/19 06:45:42;;;;;;;1.23;1.10;;;-0.80;99.90;;;;;;5102175;28;20181;-61
2022/01/19 06:48:26;;;;;;;1.30;1.30;;;-0.80;99.90;;;;;;5106635;28;20228;-62
2022/01/19 06:51:11;;;;;;;0.87;0.87;;;-0.80;99.90;;;;;;5111263;28;20211;-62
2022/01/19 06:53:56;;;;;;;1.40;1.30;;;-0.80;99.90;;;;;;5104769;28;20277;-59
2022/01/19 06:56:40;;;;;;;4.57;1.27;;;-0.80;99.90;;;;;;5105103;28;20273;-57
2022/01/19 06:59:25;;;;;;;1.57;1.57;;;-0.80;99.90;;;;;;5104746;28;20261;-61
2022/01/19 07:02:09;;;;;;;1.40;1.27;;;-0.90;99.90;;;;;;5105422;28;20199;-57
2022/01/19 07:04:54;;;;;;;1.83;1.13;;;-0.90;99.90;;;;;;5105905;28;20200;-58
2022/01/19 07:07:38;;;;;;;4.53;1.77;;;-0.80;99.90;;;;;;5104247;28;20188;-59
2022/01/19 07:10:23;;;;;;;4.60;2.03;;;-0.60;99.90;;;;;;5105739;28;20196;-54
2022/01/19 07:13:08;;;;;;;1.93;1.80;;;-0.60;99.90;;;;;;5105583;28;20278;-62
2022/01/19 07:15:53;;;;;;;1.70;1.03;;;-0.60;99.90;;;;;;5104636;28;20192;-62
2022/01/19 07:18:37;;;;;;;1.47;1.20;;;-0.60;99.90;;;;;;5105438;28;20323;-61
2022/01/19 07:21:21;;;;;;;1.07;1.07;;;-0.60;99.90;;;;;;5105176;28;20353;-56
2022/01/19 07:24:05;;;;;;;1.50;1.07;;;-0.70;99.90;;;;;;5104486;28;20193;-62
2022/01/19 07:26:50;;;;;;;1.40;1.30;;;-0.70;99.90;;;;;;5105670;28;20247;-62
2022/01/19 07:29:34;;;;;;;1.40;1.00;;;-0.80;99.90;;;;;;5102892;28;20234;-59
2022/01/19 07:32:20;;;;;;;2.47;1.77;;;-0.70;99.90;;;;;;5102171;28;20200;-58
2022/01/19 07:35:06;;;;;;;1.80;1.37;;;-0.70;99.90;;;;;;5103347;28;20212;-62
2022/01/19 07:37:51;;;;;;;2.10;2.00;;;-0.70;99.90;;;;;;5101693;28;20189;-59
2022/01/19 07:40:36;;;;;;;2.33;1.23;;;-0.60;99.90;;;;;;5101241;28;20250;-54
2022/01/19 07:43:20;;;;;;;6.13;1.73;;;-0.50;99.90;;;;;;5099633;28;20216;-60
2022/01/19 07:46:05;;;;;;;5.40;2.20;;;-0.50;99.90;;;;;;5095822;28;20278;-62
2022/01/19 07:48:53;;;;;;;4.60;2.40;;;-0.50;99.90;;;;;;5097644;28;20181;-60
2022/01/19 07:51:37;;;;;;;2.90;1.90;;;-0.60;99.90;;;;;;5085578;28;20216;-61
2022/01/19 07:54:21;;;;;;;3.80;1.43;;;-0.50;99.90;;;;;;5084053;28;20684;-54
2022/01/19 07:57:06;;;;;;;2.17;1.93;;;-0.50;99.90;;;;;;5087120;28;20204;-62
2022/01/19 07:59:51;;;;;;;2.87;2.47;;;-0.40;99.90;;;;;;5085188;28;20216;-53
2022/01/19 08:02:35;;;;;;;3.37;3.07;;;-0.40;99.90;;;;;;5087024;28;20639;-54
2022/01/19 08:05:20;;;;;;;2.10;1.90;;;-0.30;99.90;;;;;;5086365;28;20268;-60
2022/01/19 08:08:05;;;;;;;3.50;1.73;;;-0.30;99.90;;;;;;5083053;28;20205;-50
2022/01/19 08:10:49;;;;;;;2.20;2.00;;;-0.20;99.90;;;;;;5083858;28;20205;-49
2022/01/19 08:13:34;;;;;;;3.83;3.57;;;-0.20;99.90;;;;;;5087012;28;20197;-58
2022/01/19 08:16:18;;;;;;;4.23;3.40;;;-0.10;99.90;;;;;;5083190;28;20232;-55
2022/01/19 08:19:03;;;;;;;4.07;2.67;;;-0.10;99.90;;;;;;5086630;28;20235;-52
2022/01/19 08:21:47;;;;;;;1.93;1.43;;;0.00;99.90;;;;;;5079285;28;20193;-55
2022/01/19 08:24:31;;;;;;;2.57;2.30;;;0.10;99.90;;;;;;5085544;28;20640;-59
2022/01/19 08:27:17;;;;;;;1.90;1.60;;;0.10;99.90;;;;;;5087757;28;20217;-59
2022/01/19 08:30:06;;;;;;;2.17;1.60;;;0.10;99.90;;;;;;5082681;28;20219;-60
2022/01/19 08:32:51;;;;;;;2.53;2.33;;;0.20;99.90;;;;;;5085523;28;20189;-54
2022/01/19 08:35:35;;;;;;;1.70;1.60;;;0.20;99.90;;;;;;5087496;28;20196;-60
2022/01/19 08:38:19;;;;;;;4.63;2.20;;;0.20;99.90;;;;;;5081580;28;20229;-54
2022/01/19 08:41:04;;;;;;;1.40;1.30;;;0.30;99.90;;;;;;5085094;28;20269;-54
2022/01/19 08:43:48;;;;;;;4.13;3.20;;;0.30;99.90;;;;;;5085104;28;20204;-60
2022/01/19 08:46:33;;;;;;;2.53;2.37;;;0.30;99.90;;;;;;5084933;28;20717;-56
2022/01/19 08:49:17;;;;;;;1.33;1.30;;;0.30;99.90;;;;;;5085405;28;20196;-52
2022/01/19 08:52:03;;;;;;;1.30;1.30;;;0.30;99.90;;;;;;5083049;28;20262;-53
2022/01/19 08:54:48;;;;;;;2.07;1.27;;;0.40;99.90;;;;;;5084886;28;20220;-52
2022/01/19 08:57:32;;;;;;;4.30;1.97;;;0.50;99.90;;;;;;5084319;28;20216;-54
2022/01/19 09:00:17;;;;;;;4.33;1.73;;;0.50;99.90;;;;;;5084954;28;20193;-58
2022/01/19 09:03:02;;;;;;;1.80;1.70;;;0.50;99.90;;;;;;5085586;28;20224;-51
2022/01/19 09:05:47;;;;;;;4.53;1.53;;;0.60;99.90;;;;;;5086022;28;20243;-60
2022/01/19 09:08:34;;;;;;;1.40;0.83;;;0.60;99.90;;;;;;5082898;28;20296;-60
2022/01/19 09:11:18;;;;;;;1.30;1.20;;;0.60;99.90;;;;;;5088196;28;20235;-50
2022/01/19 09:14:06;;;;;;;0.57;0.57;;;0.70;99.90;;;;;;5087515;28;20257;-61
2022/01/19 09:16:50;;;;;;;1.37;0.90;;;0.70;99.90;;;;;;5080344;28;20258;-55
2022/01/19 09:19:39;;;;;;;2.80;1.80;;;0.70;99.90;;;;;;5067379;28;20363;-56
2022/01/19 09:22:24;;;;;;;2.63;1.50;;;0.70;99.90;;;;;;5076997;28;20282;-59
2022/01/19 09:25:10;;;;;;;1.70;1.60;;;0.80;99.90;;;;;;5083337;28;20273;-51
2022/01/19 09:27:54;;;;;;;2.50;2.23;;;0.80;99.90;;;;;;5068793;28;20197;-52
2022/01/19 09:30:41;;;;;;;1.33;1.27;;;0.80;99.90;;;;;;5077723;28;20200;-57
2022/01/19 09:33:28;;;;;;;2.37;1.27;;;0.80;99.90;;;;;;5084323;28;20192;-50
2022/01/19 09:36:32;;;;;;;3.33;1.90;;;0.90;99.90;;;;;;5072917;28;20196;-52
2022/01/19 09:39:24;;;;;;;1.20;1.20;;;0.90;99.90;;;;;;5069583;28;20252;-57
2022/01/19 09:42:10;;;;;;;1.20;1.10;;;1.00;99.90;;;;;;5077462;28;20225;-46
2022/01/19 09:44:54;;;;;;;3.50;1.73;;;1.10;99.90;;;;;;5075270;28;20212;-61
2022/01/19 09:47:39;;;;;;;2.17;1.93;;;1.10;99.90;;;;;;5069815;28;20765;-54
2022/01/19 09:50:23;;;;;;;3.73;1.23;;;1.20;99.90;;;;;;5066964;28;20200;-56
2022/01/19 09:53:08;;;;;;;0.90;0.90;;;1.20;99.90;;;;;;5072492;28;20193;-59
2022/01/19 09:55:52;;;;;;;1.70;1.23;;;1.30;99.90;;;;;;5077582;28;20204;-57
2022/01/19 09:58:37;;;;;;;0.70;0.57;;;1.30;99.90;;;;;;5077483;28;20225;-55
2022/01/19 10:01:24;;;;;;;4.40;2.03;;;1.40;99.90;;;;;;5069864;28;20241;-59
2022/01/19 10:04:20;;;;;;;0.83;0.83;;;1.50;99.90;;;;;;5072340;28;20375;-51
2022/01/19 10:07:15;;;;;;;4.00;1.83;;;1.80;99.90;;;;;;5073072;28;20189;-56
2022/01/19 10:10:05;;;;;;;0.93;0.93;;;2.10;99.90;;;;;;5073895;28;20203;-59
2022/01/19 10:19:23;;;;;;;4.37;1.30;;;2.70;99.90;;;;;;5056926;28;20225;-56
2022/01/19 10:22:17;;;;;;;2.53;2.03;;;2.60;99.90;;;;;;5076603;28;20220;-56
2022/01/19 10:25:04;;;;;;;2.10;1.90;;;2.10;99.90;;;;;;5080166;28;20311;-54
2022/01/19 10:27:48;;;;;;;5.80;1.90;;;2.10;99.90;;;;;;5079201;28;20271;-59
2022/01/19 10:30:32;;;;;;;2.33;2.20;;;2.40;99.90;;;;;;5077577;28;20301;-60
2022/01/19 10:33:19;;;;;;;2.80;2.50;;;2.00;99.90;;;;;;5080575;28;20243;-55
2022/01/19 10:36:04;;;;;;;10.23;3.13;;;1.80;99.90;;;;;;5078159;28;20204;-59
2022/01/19 10:38:57;;;;;;;3.47;2.80;;;1.60;99.90;;;;;;5077805;28;20237;-50
2022/01/19 10:42:03;;;;;;;1.67;1.57;;;1.30;99.90;;;;;;5080815;28;20201;-52
2022/01/19 10:45:00;;;;;;;2.17;1.87;;;1.40;99.90;;;;;;5077551;28;20200;-57
2022/01/19 10:47:44;;;;;;;3.00;2.30;;;1.50;99.90;;;;;;5077904;28;20204;-54
2022/01/19 10:50:31;;;;;;;1.63;1.53;;;1.60;99.90;;;;;;5079907;28;20201;-57
2022/01/19 10:53:19;;;;;;;2.10;2.00;;;1.90;99.90;;;;;;5077440;28;20217;-53
2022/01/19 10:56:05;;;;;;;4.10;1.83;;;1.70;99.90;;;;;;5077791;28;20197;-56
2022/01/19 10:59:14;;;;;;;4.97;2.00;;;1.80;99.90;;;;;;5080182;28;20255;-60
2022/01/19 11:02:01;;;;;;;2.73;2.07;;;1.70;99.90;;;;;;5077904;28;20204;-50
2022/01/19 11:04:46;;;;;;;6.30;2.33;;;1.80;99.90;;;;;;5078388;28;20201;-53
2022/01/19 11:07:31;;;;;;;4.07;2.33;;;1.90;99.90;;;;;;5080019;28;20244;-57
2022/01/19 11:10:21;;;;;;;4.00;2.00;;;2.00;99.90;;;;;;5076979;28;20208;-58
2022/01/19 11:13:13;;;;;;;2.97;2.00;;;2.00;99.90;;;;;;5078987;28;20201;-57
2022/01/19 11:16:01;;;;;;;4.97;1.90;;;1.80;99.90;;;;;;5080225;28;20224;-54
2022/01/19 11:18:45;;;;;;;3.73;1.70;;;1.90;99.90;;;;;;5077200;28;20326;-55
2022/01/19 11:21:37;;;;;;;2.93;2.07;;;1.80;99.90;;;;;;5079806;28;20197;-60
2022/01/19 11:24:52;;;;;;;7.00;2.67;;;1.70;99.90;;;;;;5079629;28;20190;-61
2022/01/19 11:27:41;;;;;;;4.30;2.97;;;1.60;99.90;;;;;;5081797;28;20194;-58
2022/01/19 11:30:32;;;;;;;3.87;2.43;;;1.50;99.90;;;;;;5082751;28;20250;-53
2022/01/19 11:33:25;;;;;;;1.70;1.53;;;1.60;99.90;;;;;;5083507;28;20251;-57
2022/01/19 11:36:34;;;;;;;5.70;3.13;;;1.70;99.90;;;;;;5080445;28;20255;-60
2022/01/19 11:39:22;;;;;;;3.60;2.00;;;1.60;99.90;;;;;;5081648;28;20234;-51
2022/01/19 11:42:07;;;;;;;4.10;3.20;;;1.60;99.90;;;;;;5083647;28;20221;-60
2022/01/19 11:44:53;;;;;;;5.73;3.70;;;1.60;99.90;;;;;;5080276;28;20201;-54
2022/01/19 11:47:42;;;;;;;4.63;2.83;;;1.60;99.90;;;;;;5082862;28;20292;-57
2022/01/19 11:50:29;;;;;;;3.30;2.67;;;1.60;99.90;;;;;;5082877;28;20200;-59
2022/01/19 11:53:15;;;;;;;8.53;4.57;;;1.20;99.90;;;;;;5079826;28;20201;-49
2022/01/19 11:56:09;;;;;;;5.30;3.77;;;1.30;99.90;;;;;;5082999;28;20193;-58
2022/01/19 11:59:04;;;;;;;5.57;3.50;;;1.40;99.90;;;;;;5082077;28;21506;-60
2022/01/19 12:01:48;;;;;;;4.97;3.13;;;1.30;99.90;;;;;;5079253;28;20216;-59
2022/01/19 12:04:37;;;;;;;8.57;3.37;;;1.20;99.90;;;;;;5082647;28;20193;-56
2022/01/19 12:07:52;;;;;;;8.03;2.97;;;1.30;99.90;;;;;;5081624;28;20197;-55
2022/01/19 12:10:46;;;;;;;8.30;4.30;;;1.30;99.90;;;;;;5079274;28;20236;-51
2022/01/19 12:19:28;;;;;;;5.03;3.17;;;1.50;99.90;;;;;;5066014;28;20221;-59
2022/01/19 12:22:26;;;;;;;4.23;2.57;;;1.60;99.90;;;;;;5081856;28;20271;-50
2022/01/19 12:25:13;;;;;;;8.53;3.60;;;1.60;99.90;;;;;;5082316;28;20197;-60
2022/01/19 12:28:00;;;;;;;5.33;3.53;;;1.70;99.90;;;;;;5079025;28;20273;-55
2022/01/19 12:30:44;;;;;;;4.50;3.67;;;1.70;99.90;;;;;;5081971;28;20263;-49
2022/01/19 12:33:29;;;;;;;5.57;4.37;;;1.50;99.90;;;;;;5081682;28;20198;-60
2022/01/19 12:36:41;;;;;;;4.47;3.27;;;1.40;99.90;;;;;;5078767;28;20190;-51
2022/01/19 12:39:26;;;;;;;6.33;3.93;;;1.50;99.90;;;;;;5094625;28;20255;-52
2022/01/19 12:42:18;;;;;;;8.80;3.70;;;1.50;99.90;;;;;;5084864;28;20246;-58
2022/01/19 12:45:03;;;;;;;8.43;4.80;;;1.50;99.90;;;;;;5084056;28;20201;-60
2022/01/19 12:47:50;;;;;;;7.43;4.23;;;1.70;99.90;;;;;;5086105;28;20370;-56
2022/01/19 12:50:38;;;;;;;6.50;3.33;;;1.70;99.90;;;;;;5082065;28;20196;-61
2022/01/19 12:53:25;;;;;;;5.03;3.53;;;1.90;99.90;;;;;;5084688;28;20231;-54
2022/01/19 12:56:10;;;;;;;7.83;3.13;;;2.20;99.90;;;;;;5085656;28;20189;-60
2022/01/19 12:59:02;;;;;;;5.23;3.67;;;2.30;99.90;;;;;;5085137;28;20274;-55
2022/01/19 13:01:48;;;;;;;4.10;3.70;;;2.10;99.90;;;;;;5097559;28;20197;-58
2022/01/19 13:04:34;;;;;;;3.97;2.93;;;2.20;99.90;;;;;;5071365;28;20256;-58
2022/01/19 13:07:26;;;;;;;4.80;4.30;;;2.30;99.90;;;;;;5070268;28;20228;-57
2022/01/19 13:13:12;;;;;;;8.23;4.00;;;2.20;99.90;;;;;;5076644;28;20228;-57
2022/01/19 13:15:59;;;;;;;3.83;3.27;;;2.10;99.90;;;;;;5067670;28;20205;-58
2022/01/19 13:18:44;;;;;;;12.43;5.00;;;2.20;99.90;;;;;;5080213;28;20296;-58
2022/01/19 13:21:29;;;;;;;2.70;2.50;;;2.30;99.90;;;;;;5080677;28;20205;-57
2022/01/19 13:24:20;;;;;;;4.03;3.50;;;2.60;99.90;;;;;;5068570;28;20196;-58
2022/01/19 13:27:06;;;;;;;5.07;3.57;;;2.40;99.90;;;;;;5070537;28;20281;-58
2022/01/19 13:29:51;;;;;;;13.17;4.73;;;2.50;99.90;;;;;;5078463;28;20196;-52
2022/01/19 13:32:38;;;;;;;5.20;3.63;;;2.40;99.90;;;;;;5075951;28;20244;-51
2022/01/19 13:35:25;;;;;;;4.57;3.10;;;2.60;99.90;;;;;;5076942;28;20192;-51
2022/01/19 13:38:13;;;;;;;4.57;2.70;;;2.60;99.90;;;;;;5073328;28;20312;-57
2022/01/19 13:41:05;;;;;;;2.93;2.67;;;2.80;99.90;;;;;;5095369;28;20205;-49
2022/01/19 13:43:51;;;;;;;4.00;2.47;;;2.80;99.90;;;;;;5071518;28;20197;-50
2022/01/19 13:46:39;;;;;;;7.63;3.97;;;2.80;99.90;;;;;;5074765;28;20201;-56
2022/01/19 13:49:23;;;;;;;5.10;3.87;;;2.90;99.90;;;;;;5071942;28;20201;-48
2022/01/19 13:52:09;;;;;;;4.77;3.53;;;3.00;99.90;;;;;;5082826;28;20250;-55
2022/01/19 13:54:54;;;;;;;9.03;3.47;;;2.70;99.90;;;;;;5074302;28;20205;-50
2022/01/19 13:57:40;;;;;;;7.13;4.03;;;2.70;99.90;;;;;;5072497;28;20221;-49
2022/01/19 14:00:24;;;;;;;5.80;3.70;;;2.60;99.90;;;;;;5082296;28;20205;-53
2022/01/19 14:03:08;;;;;;;5.07;3.90;;;2.50;99.90;;;;;;5065653;28;20193;-49
2022/01/19 14:05:54;;;;;;;7.10;3.47;;;2.60;99.90;;;;;;5076453;28;20318;-53
2022/01/19 14:08:40;;;;;;;4.47;3.53;;;2.80;99.90;;;;;;5073991;28;20306;-52
2022/01/19 14:11:25;;;;;;;6.87;4.40;;;3.00;99.90;;;;;;5073154;28;20196;-48
2022/01/19 14:14:22;;;;;;;4.73;3.33;;;3.10;99.90;;;;;;5066433;28;20186;-51
2022/01/19 14:17:10;;;;;;;7.73;3.77;;;3.10;99.90;;;;;;5075350;28;20192;-53
2022/01/19 14:19:56;;;;;;;5.63;3.73;;;3.20;99.90;;;;;;5072931;28;20217;-52
2022/01/19 14:22:40;;;;;;;5.07;3.97;;;3.60;99.90;;;;;;5076035;28;20284;-55
2022/01/19 14:25:24;;;;;;;5.93;3.50;;;4.70;99.90;;;;;;5077163;28;20201;-51
2022/01/19 14:28:15;;;;;;;6.60;3.93;;;6.10;99.90;;;;;;5077420;28;20185;-49
2022/01/19 14:31:06;;;;;;;9.97;3.97;;;7.50;99.90;;;;;;5081982;28;20285;-51
2022/01/19 14:33:51;;;;;;;4.03;3.17;;;7.90;99.90;;;;;;5069700;28;20204;-58
2022/01/19 14:36:35;;;;;;;5.57;3.27;;;7.50;99.90;;;;;;5074428;28;20224;-47
2022/01/19 14:39:19;;;;;;;2.90;2.23;;;8.20;99.90;;;;;;5070680;28;20240;-46
2022/01/19 14:42:09;;;;;;;3.70;3.20;;;7.60;99.90;;;;;;5071272;28;20220;-48
2022/01/19 14:44:59;;;;;;;6.03;3.83;;;7.80;99.90;;;;;;5073113;28;20312;-47
2022/01/19 14:47:44;;;;;;;6.63;3.23;;;8.20;99.90;;;;;;5072210;28;20197;-59
2022/01/19 14:50:33;;;;;;;5.20;3.43;;;8.50;99.90;;;;;;5071092;28;20200;-55
2022/01/19 14:53:18;;;;;;;5.17;3.33;;;7.80;99.90;;;;;;5078916;28;20309;-45
2022/01/19 14:56:02;;;;;;;4.90;3.20;;;7.40;99.90;;;;;;5072666;28;20213;-46
2022/01/19 14:58:57;;;;;;;8.30;3.73;;;8.00;99.90;;;;;;5078303;28;20220;-55
2022/01/19 15:01:45;;;;;;;6.80;3.20;;;6.90;99.90;;;;;;5070570;28;20281;-51
2022/01/19 15:04:30;;;;;;;5.70;3.73;;;6.10;99.90;;;;;;5074066;28;20260;-54
2022/01/19 15:07:14;;;;;;;6.27;3.30;;;5.40;99.90;;;;;;5077384;28;20197;-59
2022/01/19 15:09:59;;;;;;;7.43;3.63;;;4.90;99.90;;;;;;5084420;28;20205;-46
2022/01/19 15:12:44;;;;;;;5.37;3.37;;;4.80;99.90;;;;;;5073085;28;20196;-53
2022/01/19 15:15:31;;;;;;;4.73;3.47;;;4.30;99.90;;;;;;5079403;28;20198;-58
2022/01/19 15:18:16;;;;;;;6.33;3.03;;;4.10;99.90;;;;;;5085204;28;20193;-59
2022/01/19 15:21:00;;;;;;;6.13;3.30;;;4.00;99.90;;;;;;5072777;28;20205;-55
2022/01/19 15:23:45;;;;;;;7.77;3.57;;;3.90;99.90;;;;;;5077276;28;20221;-60
2022/01/19 15:26:31;;;;;;;6.27;3.27;;;4.00;99.90;;;;;;5079197;28;20208;-53
2022/01/19 15:29:16;;;;;;;2.97;2.53;;;4.00;99.90;;;;;;5074419;28;20244;-48
2022/01/19 15:32:00;;;;;;;3.93;3.50;;;3.90;99.90;;;;;;5074232;28;20197;-50
2022/01/19 15:34:45;;;;;;;4.73;2.77;;;3.90;99.90;;;;;;5075657;28;20197;-59
2022/01/19 15:37:31;;;;;;;3.87;2.87;;;3.50;99.90;;;;;;5075863;28;20250;-56
2022/01/19 15:40:16;;;;;;;4.13;3.23;;;3.50;99.90;;;;;;5081303;28;20274;-50
2022/01/19 15:43:02;;;;;;;4.30;3.90;;;3.40;99.90;;;;;;5065541;28;20217;-58
2022/01/19 15:45:49;;;;;;;17.03;6.77;;;3.50;99.90;;;;;;5081181;28;20193;-56
2022/01/19 15:48:34;;;;;;;5.23;4.13;;;3.50;99.90;;;;;;5084252;28;20239;-58
2022/01/19 15:51:19;;;;;;;4.37;2.80;;;3.50;99.90;;;;;;5067271;28;20197;-61
2022/01/19 15:54:04;;;;;;;4.10;3.20;;;3.50;99.90;;;;;;5100887;28;20205;-58
2022/01/19 15:56:50;;;;;;;6.43;4.40;;;3.50;99.90;;;;;;5086744;28;20285;-65
2022/01/19 15:59:34;;;;;;;3.37;3.07;;;3.50;99.90;;;;;;5084754;28;20309;-60
2022/01/19 16:02:19;;;;;;;6.27;3.00;;;3.40;99.90;;;;;;5087553;28;20192;-53
2022/01/19 16:05:04;;;;;;;5.43;3.70;;;3.40;99.90;;;;;;5086525;28;20213;-58
2022/01/19 16:07:49;;;;;;;4.23;2.93;;;3.40;99.90;;;;;;5086745;28;20263;-59
2022/01/19 16:10:34;;;;;;;8.33;3.87;;;3.40;99.90;;;;;;5088565;28;20278;-57